sensor_id;sensor_type;location;lat;lon;timestamp;pressure;altitude;pressure_sealevel;temperature;humidity
64253;BME280;50592;52.958;-7.470;2024-03-02T00:46:52;98243.78;;;2.85;100.00
64253;BME280;50592;52.958;-7.470;2024-03-02T02:23:18;98269.50;;;2.62;100.00
64253;BME280;50592;52.958;-7.470;2024-03-02T02:30:34;98266.16;;;2.70;100.00
64253;BME280;50592;52.958;-7.470;2024-03-02T02:37:08;98265.31;;;2.69;100.00
64253;BME280;50592;52.958;-7.470;2024-03-02T02:40:27;98266.00;;;2.71;100.00
64253;BME280;50592;52.958;-7.470;2024-03-02T03:04:41;98274.38;;;2.47;100.00
64253;BME280;50592;52.958;-7.470;2024-03-02T03:11:40;98271.31;;;2.33;100.00
64253;BME280;50592;52.958;-7.470;2024-03-02T03:27:43;98267.09;;;2.22;100.00
64253;BME280;50592;52.958;-7.470;2024-03-02T03:31:04;98272.19;;;2.24;100.00
64253;BME280;50592;52.958;-7.470;2024-03-02T03:56:42;98261.16;;;2.30;100.00
64253;BME280;50592;52.958;-7.470;2024-03-02T04:16:27;98276.66;;;2.32;100.00
64253;BME280;50592;52.958;-7.470;2024-03-02T04:35:53;98280.53;;;2.28;100.00
64253;BME280;50592;52.958;-7.470;2024-03-02T04:38:37;98287.38;;;2.29;100.00
64253;BME280;50592;52.958;-7.470;2024-03-02T04:41:36;98285.97;;;2.34;100.00
64253;BME280;50592;52.958;-7.470;2024-03-02T04:52:21;98298.81;;;2.46;100.00
64253;BME280;50592;52.958;-7.470;2024-03-02T04:55:37;98315.94;;;2.48;100.00
64253;BME280;50592;52.958;-7.470;2024-03-02T04:58:56;98308.41;;;2.45;100.00
64253;BME280;50592;52.958;-7.470;2024-03-02T05:02:06;98307.31;;;2.48;100.00
64253;BME280;50592;52.958;-7.470;2024-03-02T05:05:11;98303.34;;;2.44;100.00
64253;BME280;50592;52.958;-7.470;2024-03-02T05:08:09;98318.63;;;2.39;100.00
64253;BME280;50592;52.958;-7.470;2024-03-02T05:23:27;98310.41;;;2.33;100.00
64253;BME280;50592;52.958;-7.470;2024-03-02T05:27:05;98321.53;;;2.35;100.00
64253;BME280;50592;52.958;-7.470;2024-03-02T05:30:23;98326.88;;;2.34;100.00
64253;BME280;50592;52.958;-7.470;2024-03-02T05:41:37;98321.38;;;2.37;100.00
64253;BME280;50592;52.958;-7.470;2024-03-02T05:45:16;98333.97;;;2.42;100.00
64253;BME280;50592;52.958;-7.470;2024-03-02T05:48:56;98317.84;;;2.28;100.00
64253;BME280;50592;52.958;-7.470;2024-03-02T05:54:57;98347.19;;;2.30;100.00
64253;BME280;50592;52.958;-7.470;2024-03-02T06:04:28;98363.97;;;2.28;100.00
64253;BME280;50592;52.958;-7.470;2024-03-02T06:07:16;98351.31;;;2.23;100.00
64253;BME280;50592;52.958;-7.470;2024-03-02T06:10:16;98360.22;;;2.30;100.00
64253;BME280;50592;52.958;-7.470;2024-03-02T06:16:50;98370.81;;;2.29;100.00
64253;BME280;50592;52.958;-7.470;2024-03-02T06:22:50;98355.31;;;2.17;100.00
64253;BME280;50592;52.958;-7.470;2024-03-02T06:25:18;98363.44;;;2.14;100.00
64253;BME280;50592;52.958;-7.470;2024-03-02T06:27:55;98386.44;;;2.29;100.00
64253;BME280;50592;52.958;-7.470;2024-03-02T06:30:36;98372.88;;;2.15;100.00
64253;BME280;50592;52.958;-7.470;2024-03-02T06:37:38;98387.44;;;2.18;100.00
64253;BME280;50592;52.958;-7.470;2024-03-02T06:40:37;98391.03;;;2.07;100.00
64253;BME280;50592;52.958;-7.470;2024-03-02T06:43:06;98388.94;;;2.10;100.00
64253;BME280;50592;52.958;-7.470;2024-03-02T06:47:15;98394.16;;;2.10;100.00
64253;BME280;50592;52.958;-7.470;2024-03-02T06:51:10;98401.19;;;2.10;100.00
64253;BME280;50592;52.958;-7.470;2024-03-02T06:54:03;98402.81;;;2.11;100.00
64253;BME280;50592;52.958;-7.470;2024-03-02T06:57:00;98405.69;;;2.08;100.00
64253;BME280;50592;52.958;-7.470;2024-03-02T06:59:38;98392.94;;;2.05;100.00
64253;BME280;50592;52.958;-7.470;2024-03-02T07:03:05;98401.97;;;2.10;100.00
64253;BME280;50592;52.958;-7.470;2024-03-02T07:15:50;98415.97;;;2.09;100.00
64253;BME280;50592;52.958;-7.470;2024-03-02T07:19:49;98411.06;;;2.06;100.00
64253;BME280;50592;52.958;-7.470;2024-03-02T07:31:02;98417.47;;;2.12;100.00
64253;BME280;50592;52.958;-7.470;2024-03-02T07:43:13;98430.78;;;2.19;100.00
64253;BME280;50592;52.958;-7.470;2024-03-02T08:12:47;98444.84;;;2.84;100.00
64253;BME280;50592;52.958;-7.470;2024-03-02T09:04:06;98449.47;;;3.46;100.00
64253;BME280;50592;52.958;-7.470;2024-03-02T09:06:55;98457.97;;;3.49;100.00
64253;BME280;50592;52.958;-7.470;2024-03-02T09:09:25;98454.25;;;3.51;100.00
64253;BME280;50592;52.958;-7.470;2024-03-02T09:12:44;98447.00;;;3.63;100.00
64253;BME280;50592;52.958;-7.470;2024-03-02T09:15:17;98455.66;;;3.64;100.00
64253;BME280;50592;52.958;-7.470;2024-03-02T09:17:45;98462.91;;;3.70;100.00
64253;BME280;50592;52.958;-7.470;2024-03-02T09:20:42;98452.84;;;3.75;100.00
64253;BME280;50592;52.958;-7.470;2024-03-02T09:27:42;98458.22;;;3.74;100.00
64253;BME280;50592;52.958;-7.470;2024-03-02T09:31:17;98455.56;;;3.92;100.00
64253;BME280;50592;52.958;-7.470;2024-03-02T09:34:07;98445.41;;;3.89;100.00
64253;BME280;50592;52.958;-7.470;2024-03-02T09:37:21;98444.53;;;3.98;100.00
64253;BME280;50592;52.958;-7.470;2024-03-02T09:47:22;98454.44;;;4.13;100.00
64253;BME280;50592;52.958;-7.470;2024-03-02T09:53:31;98455.19;;;4.23;100.00
64253;BME280;50592;52.958;-7.470;2024-03-02T09:56:07;98444.34;;;4.18;100.00
64253;BME280;50592;52.958;-7.470;2024-03-02T09:59:16;98440.75;;;4.19;100.00
64253;BME280;50592;52.958;-7.470;2024-03-02T10:02:45;98438.25;;;4.36;100.00
64253;BME280;50592;52.958;-7.470;2024-03-02T10:05:30;98444.81;;;4.40;100.00
64253;BME280;50592;52.958;-7.470;2024-03-02T10:09:30;98437.63;;;4.42;100.00
64253;BME280;50592;52.958;-7.470;2024-03-02T10:14:38;98427.72;;;4.27;100.00
64253;BME280;50592;52.958;-7.470;2024-03-02T10:17:11;98442.09;;;4.23;100.00
64253;BME280;50592;52.958;-7.470;2024-03-02T10:19:41;98444.28;;;4.09;100.00
64253;BME280;50592;52.958;-7.470;2024-03-02T10:22:11;98449.34;;;4.11;100.00
64253;BME280;50592;52.958;-7.470;2024-03-02T10:25:33;98468.25;;;4.23;100.00
64253;BME280;50592;52.958;-7.470;2024-03-02T10:28:29;98460.72;;;4.20;100.00
64253;BME280;50592;52.958;-7.470;2024-03-02T10:31:04;98454.72;;;4.28;100.00
64253;BME280;50592;52.958;-7.470;2024-03-02T10:33:31;98464.78;;;4.41;100.00
64253;BME280;50592;52.958;-7.470;2024-03-02T10:36:06;98457.56;;;4.43;100.00
64253;BME280;50592;52.958;-7.470;2024-03-02T10:38:45;98462.19;;;4.49;100.00
64253;BME280;50592;52.958;-7.470;2024-03-02T10:49:33;98461.38;;;4.75;100.00
64253;BME280;50592;52.958;-7.470;2024-03-02T10:52:18;98449.31;;;4.82;100.00
64253;BME280;50592;52.958;-7.470;2024-03-02T10:55:30;98459.84;;;4.99;100.00
64253;BME280;50592;52.958;-7.470;2024-03-02T10:58:22;98448.97;;;5.29;100.00
64253;BME280;50592;52.958;-7.470;2024-03-02T11:05:06;98452.53;;;5.11;100.00
64253;BME280;50592;52.958;-7.470;2024-03-02T11:13:08;98452.53;;;5.19;100.00
64253;BME280;50592;52.958;-7.470;2024-03-02T11:15:35;98459.91;;;5.24;100.00
64253;BME280;50592;52.958;-7.470;2024-03-02T11:18:23;98449.91;;;5.19;100.00
64253;BME280;50592;52.958;-7.470;2024-03-02T11:20:59;98445.47;;;5.12;100.00
64253;BME280;50592;52.958;-7.470;2024-03-02T11:23:41;98457.25;;;5.07;100.00
64253;BME280;50592;52.958;-7.470;2024-03-02T11:27:11;98468.41;;;5.09;100.00
64253;BME280;50592;52.958;-7.470;2024-03-02T11:29:53;98455.06;;;4.94;100.00
64253;BME280;50592;52.958;-7.470;2024-03-02T11:35:36;98457.41;;;5.06;100.00
64253;BME280;50592;52.958;-7.470;2024-03-02T11:38:03;98452.19;;;5.06;100.00
64253;BME280;50592;52.958;-7.470;2024-03-02T11:40:35;98452.53;;;5.11;100.00
64253;BME280;50592;52.958;-7.470;2024-03-02T11:43:05;98449.88;;;5.03;100.00
64253;BME280;50592;52.958;-7.470;2024-03-02T11:45:32;98456.09;;;5.10;100.00
64253;BME280;50592;52.958;-7.470;2024-03-02T11:48:01;98458.94;;;5.17;100.00
64253;BME280;50592;52.958;-7.470;2024-03-02T11:50:34;98468.03;;;5.04;100.00
64253;BME280;50592;52.958;-7.470;2024-03-02T11:53:09;98445.91;;;4.99;100.00
64253;BME280;50592;52.958;-7.470;2024-03-02T11:55:40;98444.41;;;4.88;100.00
64253;BME280;50592;52.958;-7.470;2024-03-02T11:58:22;98452.66;;;5.01;100.00
64253;BME280;50592;52.958;-7.470;2024-03-02T12:00:56;98450.41;;;5.15;100.00
64253;BME280;50592;52.958;-7.470;2024-03-02T12:03:52;98427.63;;;5.07;100.00
64253;BME280;50592;52.958;-7.470;2024-03-02T12:06:31;98432.22;;;5.13;100.00
64253;BME280;50592;52.958;-7.470;2024-03-02T12:09:39;98437.34;;;5.23;100.00
64253;BME280;50592;52.958;-7.470;2024-03-02T12:12:29;98430.94;;;5.26;100.00
64253;BME280;50592;52.958;-7.470;2024-03-02T12:15:05;98429.00;;;5.28;100.00
64253;BME280;50592;52.958;-7.470;2024-03-02T12:17:39;98420.34;;;5.44;100.00
64253;BME280;50592;52.958;-7.470;2024-03-02T12:20:14;98422.50;;;5.57;100.00
64253;BME280;50592;52.958;-7.470;2024-03-02T12:22:55;98408.41;;;5.58;100.00
64253;BME280;50592;52.958;-7.470;2024-03-02T12:25:25;98424.16;;;5.75;100.00
64253;BME280;50592;52.958;-7.470;2024-03-02T12:27:55;98412.84;;;5.74;100.00
64253;BME280;50592;52.958;-7.470;2024-03-02T12:30:24;98419.72;;;5.75;100.00
64253;BME280;50592;52.958;-7.470;2024-03-02T12:32:52;98405.47;;;5.78;100.00
64253;BME280;50592;52.958;-7.470;2024-03-02T12:35:37;98403.38;;;6.06;100.00
64253;BME280;50592;52.958;-7.470;2024-03-02T12:38:09;98386.28;;;6.02;100.00
64253;BME280;50592;52.958;-7.470;2024-03-02T12:41:18;98389.75;;;6.19;100.00
64253;BME280;50592;52.958;-7.470;2024-03-02T12:43:53;98403.50;;;6.13;100.00
64253;BME280;50592;52.958;-7.470;2024-03-02T12:46:26;98402.03;;;5.94;100.00
64253;BME280;50592;52.958;-7.470;2024-03-02T12:49:22;98410.88;;;5.93;100.00
64253;BME280;50592;52.958;-7.470;2024-03-02T12:52:16;98389.25;;;5.82;100.00
64253;BME280;50592;52.958;-7.470;2024-03-02T12:54:49;98409.06;;;5.60;100.00
64253;BME280;50592;52.958;-7.470;2024-03-02T12:58:00;98397.91;;;5.33;100.00
64253;BME280;50592;52.958;-7.470;2024-03-02T13:00:28;98399.34;;;5.19;100.00
64253;BME280;50592;52.958;-7.470;2024-03-02T13:03:01;98389.03;;;5.17;100.00
64253;BME280;50592;52.958;-7.470;2024-03-02T13:05:30;98393.63;;;5.32;100.00
64253;BME280;50592;52.958;-7.470;2024-03-02T13:08:11;98388.41;;;5.40;100.00
64253;BME280;50592;52.958;-7.470;2024-03-02T13:10:51;98379.25;;;5.44;100.00
64253;BME280;50592;52.958;-7.470;2024-03-02T13:13:42;98387.25;;;5.51;100.00
64253;BME280;50592;52.958;-7.470;2024-03-02T13:16:27;98382.84;;;5.52;100.00
64253;BME280;50592;52.958;-7.470;2024-03-02T13:19:18;98374.81;;;5.28;100.00
64253;BME280;50592;52.958;-7.470;2024-03-02T13:21:51;98376.41;;;5.04;100.00
64253;BME280;50592;52.958;-7.470;2024-03-02T13:24:31;98386.50;;;4.91;100.00
64253;BME280;50592;52.958;-7.470;2024-03-02T13:27:01;98384.03;;;4.89;100.00
64253;BME280;50592;52.958;-7.470;2024-03-02T13:29:50;98392.44;;;5.01;100.00
64253;BME280;50592;52.958;-7.470;2024-03-02T13:32:24;98397.53;;;5.19;100.00
64253;BME280;50592;52.958;-7.470;2024-03-02T13:35:22;98375.63;;;5.20;100.00
64253;BME280;50592;52.958;-7.470;2024-03-02T13:37:48;98383.00;;;5.25;100.00
64253;BME280;50592;52.958;-7.470;2024-03-02T13:40:15;98385.44;;;5.27;100.00
64253;BME280;50592;52.958;-7.470;2024-03-02T13:42:54;98364.81;;;5.24;100.00
64253;BME280;50592;52.958;-7.470;2024-03-02T13:45:20;98369.22;;;5.15;100.00
64253;BME280;50592;52.958;-7.470;2024-03-02T13:47:46;98377.72;;;5.17;100.00
64253;BME280;50592;52.958;-7.470;2024-03-02T13:50:12;98374.63;;;5.21;100.00
64253;BME280;50592;52.958;-7.470;2024-03-02T13:52:38;98371.03;;;5.31;100.00
64253;BME280;50592;52.958;-7.470;2024-03-02T13:55:05;98363.66;;;5.26;100.00
64253;BME280;50592;52.958;-7.470;2024-03-02T13:57:30;98367.22;;;5.08;100.00
64253;BME280;50592;52.958;-7.470;2024-03-02T14:02:57;98351.03;;;4.96;100.00
64253;BME280;50592;52.958;-7.470;2024-03-02T14:05:29;98342.66;;;4.93;100.00
64253;BME280;50592;52.958;-7.470;2024-03-02T14:07:55;98369.50;;;4.95;100.00
64253;BME280;50592;52.958;-7.470;2024-03-02T14:10:20;98374.53;;;4.80;100.00
64253;BME280;50592;52.958;-7.470;2024-03-02T14:12:51;98372.91;;;4.87;100.00
64253;BME280;50592;52.958;-7.470;2024-03-02T14:15:20;98372.41;;;4.83;100.00
64253;BME280;50592;52.958;-7.470;2024-03-02T14:17:46;98375.81;;;4.76;100.00
64253;BME280;50592;52.958;-7.470;2024-03-02T14:20:11;98363.56;;;4.84;100.00
64253;BME280;50592;52.958;-7.470;2024-03-02T14:22:39;98358.84;;;4.88;100.00
64253;BME280;50592;52.958;-7.470;2024-03-02T14:25:07;98368.03;;;5.01;100.00
64253;BME280;50592;52.958;-7.470;2024-03-02T14:27:33;98360.03;;;5.02;100.00
64253;BME280;50592;52.958;-7.470;2024-03-02T14:30:24;98360.22;;;5.09;100.00
64253;BME280;50592;52.958;-7.470;2024-03-02T14:32:50;98349.38;;;5.04;100.00
64253;BME280;50592;52.958;-7.470;2024-03-02T14:35:18;98352.19;;;5.11;100.00
64253;BME280;50592;52.958;-7.470;2024-03-02T14:37:44;98347.94;;;5.18;100.00
64253;BME280;50592;52.958;-7.470;2024-03-02T14:40:10;98349.25;;;5.30;100.00
64253;BME280;50592;52.958;-7.470;2024-03-02T14:42:38;98357.13;;;5.30;100.00
64253;BME280;50592;52.958;-7.470;2024-03-02T14:45:04;98360.91;;;5.36;100.00
64253;BME280;50592;52.958;-7.470;2024-03-02T14:47:33;98357.28;;;5.37;100.00
64253;BME280;50592;52.958;-7.470;2024-03-02T14:50:00;98350.59;;;5.43;100.00
64253;BME280;50592;52.958;-7.470;2024-03-02T14:52:25;98354.53;;;5.47;100.00
64253;BME280;50592;52.958;-7.470;2024-03-02T14:54:51;98353.69;;;5.46;100.00
64253;BME280;50592;52.958;-7.470;2024-03-02T14:57:17;98354.53;;;5.47;100.00
64253;BME280;50592;52.958;-7.470;2024-03-02T14:59:43;98351.91;;;5.47;100.00
64253;BME280;50592;52.958;-7.470;2024-03-02T15:02:09;98355.03;;;5.51;100.00
64253;BME280;50592;52.958;-7.470;2024-03-02T15:04:35;98336.50;;;5.44;100.00
64253;BME280;50592;52.958;-7.470;2024-03-02T15:07:03;98334.72;;;5.44;100.00
64253;BME280;50592;52.958;-7.470;2024-03-02T15:09:32;98355.03;;;5.51;100.00
64253;BME280;50592;52.958;-7.470;2024-03-02T15:12:00;98353.53;;;5.56;100.00
64253;BME280;50592;52.958;-7.470;2024-03-02T15:14:27;98338.81;;;5.55;100.00
64253;BME280;50592;52.958;-7.470;2024-03-02T15:17:04;98341.44;;;5.55;100.00
64253;BME280;50592;52.958;-7.470;2024-03-02T15:30:55;98356.81;;;5.50;100.00
64253;BME280;50592;52.958;-7.470;2024-03-02T15:37:16;98341.91;;;5.42;100.00
64253;BME280;50592;52.958;-7.470;2024-03-02T15:44:30;98356.66;;;5.68;100.00
64253;BME280;50592;52.958;-7.470;2024-03-02T15:47:08;98350.25;;;5.54;100.00
64253;BME280;50592;52.958;-7.470;2024-03-02T15:49:49;98337.66;;;5.58;100.00
64253;BME280;50592;52.958;-7.470;2024-03-02T15:52:27;98348.94;;;5.42;100.00
64253;BME280;50592;52.958;-7.470;2024-03-02T15:59:19;98346.94;;;5.11;100.00
64253;BME280;50592;52.958;-7.470;2024-03-02T16:02:30;98355.63;;;5.11;100.00
64253;BME280;50592;52.958;-7.470;2024-03-02T16:05:31;98364.97;;;5.30;100.00
64253;BME280;50592;52.958;-7.470;2024-03-02T16:08:28;98354.03;;;5.43;100.00
64253;BME280;50592;52.958;-7.470;2024-03-02T16:10:57;98361.38;;;5.48;100.00
64253;BME280;50592;52.958;-7.470;2024-03-02T16:14:13;98373.34;;;5.42;100.00
64253;BME280;50592;52.958;-7.470;2024-03-02T16:19:50;98373.50;;;5.32;100.00
64253;BME280;50592;52.958;-7.470;2024-03-02T16:22:51;98366.78;;;5.30;100.00
64253;BME280;50592;52.958;-7.470;2024-03-02T16:25:50;98371.03;;;5.31;100.00
64253;BME280;50592;52.958;-7.470;2024-03-02T16:28:35;98377.13;;;5.31;100.00
64253;BME280;50592;52.958;-7.470;2024-03-02T16:31:01;98373.84;;;5.38;100.00
64253;BME280;50592;52.958;-7.470;2024-03-02T16:34:13;98384.13;;;5.31;100.00
64253;BME280;50592;52.958;-7.470;2024-03-02T16:36:41;98375.78;;;5.19;100.00
64253;BME280;50592;52.958;-7.470;2024-03-02T16:39:08;98392.28;;;5.19;100.00
64253;BME280;50592;52.958;-7.470;2024-03-02T16:41:39;98409.09;;;5.00;100.00
64253;BME280;50592;52.958;-7.470;2024-03-02T16:45:20;98394.81;;;4.78;100.00
64253;BME280;50592;52.958;-7.470;2024-03-02T16:47:46;98393.94;;;4.69;100.00
64253;BME280;50592;52.958;-7.470;2024-03-02T16:50:21;98398.81;;;4.64;100.00
64253;BME280;50592;52.958;-7.470;2024-03-02T16:52:56;98391.72;;;4.47;100.00
64253;BME280;50592;52.958;-7.470;2024-03-02T16:55:25;98401.22;;;4.49;100.00
64253;BME280;50592;52.958;-7.470;2024-03-02T16:57:59;98423.00;;;4.57;100.00
64253;BME280;50592;52.958;-7.470;2024-03-02T17:00:28;98410.84;;;4.48;100.00
64253;BME280;50592;52.958;-7.470;2024-03-02T17:02:54;98410.19;;;4.46;100.00
64253;BME280;50592;52.958;-7.470;2024-03-02T17:05:23;98395.25;;;4.38;100.00
64253;BME280;50592;52.958;-7.470;2024-03-02T17:07:50;98405.38;;;4.33;100.00
64253;BME280;50592;52.958;-7.470;2024-03-02T17:10:16;98404.72;;;4.31;100.00
64253;BME280;50592;52.958;-7.470;2024-03-02T17:12:42;98416.31;;;4.28;100.00
64253;BME280;50592;52.958;-7.470;2024-03-02T17:15:08;98418.41;;;4.25;100.00
64253;BME280;50592;52.958;-7.470;2024-03-02T17:17:41;98407.44;;;4.21;100.00
64253;BME280;50592;52.958;-7.470;2024-03-02T17:20:07;98414.75;;;4.17;100.00
64253;BME280;50592;52.958;-7.470;2024-03-02T17:22:35;98411.50;;;4.15;100.00
64253;BME280;50592;52.958;-7.470;2024-03-02T17:25:01;98414.88;;;4.07;100.00
64253;BME280;50592;52.958;-7.470;2024-03-02T17:27:27;98424.03;;;4.12;100.00
64253;BME280;50592;52.958;-7.470;2024-03-02T17:29:57;98422.09;;;4.14;100.00
64253;BME280;50592;52.958;-7.470;2024-03-02T17:32:22;98436.50;;;4.18;100.00
64253;BME280;50592;52.958;-7.470;2024-03-02T17:34:48;98431.88;;;4.12;100.00
64253;BME280;50592;52.958;-7.470;2024-03-02T17:37:14;98429.78;;;4.15;100.00
64253;BME280;50592;52.958;-7.470;2024-03-02T17:39:43;98447.25;;;4.15;100.00
64253;BME280;50592;52.958;-7.470;2024-03-02T17:42:08;98449.72;;;4.16;100.00
64253;BME280;50592;52.958;-7.470;2024-03-02T17:44:34;98457.03;;;4.13;100.00
64253;BME280;50592;52.958;-7.470;2024-03-02T17:47:09;98459.97;;;4.09;100.00
64253;BME280;50592;52.958;-7.470;2024-03-02T17:49:45;98458.34;;;4.08;100.00
64253;BME280;50592;52.958;-7.470;2024-03-02T17:52:29;98466.09;;;4.00;100.00
64253;BME280;50592;52.958;-7.470;2024-03-02T17:55:03;98461.47;;;3.94;100.00
64253;BME280;50592;52.958;-7.470;2024-03-02T17:57:29;98474.25;;;3.97;100.00
64253;BME280;50592;52.958;-7.470;2024-03-02T17:59:55;98479.53;;;3.87;100.00
64253;BME280;50592;52.958;-7.470;2024-03-02T18:02:24;98481.72;;;3.92;100.00
64253;BME280;50592;52.958;-7.470;2024-03-02T18:04:49;98473.97;;;3.82;100.00
64253;BME280;50592;52.958;-7.470;2024-03-02T18:07:15;98485.53;;;3.79;100.00
64253;BME280;50592;52.958;-7.470;2024-03-02T18:09:45;98475.75;;;3.81;100.00
64253;BME280;50592;52.958;-7.470;2024-03-02T18:12:14;98487.84;;;3.82;100.00
64253;BME280;50592;52.958;-7.470;2024-03-02T18:14:45;98484.94;;;3.85;100.00
64253;BME280;50592;52.958;-7.470;2024-03-02T18:17:11;98491.44;;;3.81;100.00
64253;BME280;50592;52.958;-7.470;2024-03-02T18:19:37;98499.13;;;3.83;100.00
64253;BME280;50592;52.958;-7.470;2024-03-02T18:22:03;98493.91;;;3.83;100.00
64253;BME280;50592;52.958;-7.470;2024-03-02T18:24:29;98501.19;;;3.79;100.00
64253;BME280;50592;52.958;-7.470;2024-03-02T18:26:55;98502.19;;;3.78;100.00
64253;BME280;50592;52.958;-7.470;2024-03-02T18:29:21;98497.25;;;3.75;100.00
64253;BME280;50592;52.958;-7.470;2024-03-02T18:31:50;98513.69;;;3.85;100.00
64253;BME280;50592;52.958;-7.470;2024-03-02T18:34:16;98513.47;;;3.79;100.00
64253;BME280;50592;52.958;-7.470;2024-03-02T18:36:42;98513.91;;;3.74;100.00
64253;BME280;50592;52.958;-7.470;2024-03-02T18:39:08;98519.44;;;3.71;100.00
64253;BME280;50592;52.958;-7.470;2024-03-02T18:41:37;98522.34;;;3.68;100.00
64253;BME280;50592;52.958;-7.470;2024-03-02T18:44:10;98528.53;;;3.67;100.00
64253;BME280;50592;52.958;-7.470;2024-03-02T18:46:38;98524.88;;;3.59;100.00
64253;BME280;50592;52.958;-7.470;2024-03-02T18:49:12;98521.56;;;3.57;100.00
64253;BME280;50592;52.958;-7.470;2024-03-02T18:51:51;98523.78;;;3.52;100.00
64253;BME280;50592;52.958;-7.470;2024-03-02T18:54:25;98525.97;;;3.57;100.00
64253;BME280;50592;52.958;-7.470;2024-03-02T18:56:54;98526.41;;;3.52;100.00
64253;BME280;50592;52.958;-7.470;2024-03-02T18:59:24;98507.59;;;3.49;100.00
64253;BME280;50592;52.958;-7.470;2024-03-02T19:01:57;98512.00;;;3.48;100.00
64253;BME280;50592;52.958;-7.470;2024-03-02T19:04:26;98522.16;;;3.51;100.00
64253;BME280;50592;52.958;-7.470;2024-03-02T19:06:55;98504.22;;;3.38;100.00
64253;BME280;50592;52.958;-7.470;2024-03-02T19:09:33;98513.63;;;3.49;100.00
64253;BME280;50592;52.958;-7.470;2024-03-02T19:12:17;98512.84;;;3.49;100.00
64253;BME280;50592;52.958;-7.470;2024-03-02T19:15:08;98521.91;;;3.44;100.00
64253;BME280;50592;52.958;-7.470;2024-03-02T19:18:04;98529.09;;;3.42;100.00
64253;BME280;50592;52.958;-7.470;2024-03-02T19:20:33;98532.22;;;3.46;100.00
64253;BME280;50592;52.958;-7.470;2024-03-02T19:22:59;98523.72;;;3.44;100.00
64253;BME280;50592;52.958;-7.470;2024-03-02T19:25:39;98524.91;;;3.50;100.00
64253;BME280;50592;52.958;-7.470;2024-03-02T19:32:14;98523.63;;;3.35;100.00
64253;BME280;50592;52.958;-7.470;2024-03-02T19:34:53;98527.19;;;3.34;100.00
64253;BME280;50592;52.958;-7.470;2024-03-02T19:37:23;98524.19;;;3.29;100.00
64253;BME280;50592;52.958;-7.470;2024-03-02T19:39:54;98526.66;;;3.31;100.00
64253;BME280;50592;52.958;-7.470;2024-03-02T19:42:30;98522.47;;;3.20;100.00
64253;BME280;50592;52.958;-7.470;2024-03-02T19:45:04;98546.03;;;3.28;100.00
64253;BME280;50592;52.958;-7.470;2024-03-02T19:48:07;98529.59;;;3.18;100.00
64253;BME280;50592;52.958;-7.470;2024-03-02T19:50:43;98529.91;;;3.15;100.00
64253;BME280;50592;52.958;-7.470;2024-03-02T19:53:17;98523.69;;;3.16;100.00
64253;BME280;50592;52.958;-7.470;2024-03-02T19:56:01;98532.25;;;3.08;100.00
64253;BME280;50592;52.958;-7.470;2024-03-02T19:58:33;98545.72;;;3.03;100.00
64253;BME280;50592;52.958;-7.470;2024-03-02T20:01:01;98537.22;;;3.01;100.00
64253;BME280;50592;52.958;-7.470;2024-03-02T20:03:46;98532.69;;;3.03;100.00
64253;BME280;50592;52.958;-7.470;2024-03-02T20:09:33;98541.22;;;2.95;100.00
64253;BME280;50592;52.958;-7.470;2024-03-02T20:16:13;98538.94;;;2.82;100.00
64253;BME280;50592;52.958;-7.470;2024-03-02T20:18:49;98556.09;;;2.85;100.00
64253;BME280;50592;52.958;-7.470;2024-03-02T20:25:13;98554.88;;;2.79;100.00
64253;BME280;50592;52.958;-7.470;2024-03-02T20:28:28;98554.16;;;2.87;100.00
64253;BME280;50592;52.958;-7.470;2024-03-02T20:34:59;98567.22;;;2.77;100.00
64253;BME280;50592;52.958;-7.470;2024-03-02T20:37:39;98563.53;;;2.70;100.00
64253;BME280;50592;52.958;-7.470;2024-03-02T20:40:21;98570.81;;;2.66;100.00
64253;BME280;50592;52.958;-7.470;2024-03-02T21:31:53;98565.59;;;2.66;100.00
64253;BME280;50592;52.958;-7.470;2024-03-02T21:35:21;98570.81;;;2.76;100.00
64253;BME280;50592;52.958;-7.470;2024-03-02T21:39:31;98569.16;;;2.75;100.00
64253;BME280;50592;52.958;-7.470;2024-03-02T21:42:29;98564.22;;;2.72;100.00
64253;BME280;50592;52.958;-7.470;2024-03-02T21:45:51;98561.22;;;2.67;100.00
64253;BME280;50592;52.958;-7.470;2024-03-02T21:48:26;98567.13;;;2.69;100.00
64253;BME280;50592;52.958;-7.470;2024-03-02T21:58:56;98578.78;;;2.65;100.00
64253;BME280;50592;52.958;-7.470;2024-03-02T22:14:31;98590.19;;;2.64;100.00
64253;BME280;50592;52.958;-7.470;2024-03-02T22:17:04;98592.66;;;2.75;100.00
64253;BME280;50592;52.958;-7.470;2024-03-02T22:19:39;98592.66;;;2.75;100.00
64253;BME280;50592;52.958;-7.470;2024-03-02T22:35:10;98587.16;;;2.78;100.00
64253;BME280;50592;52.958;-7.470;2024-03-02T23:04:06;98593.44;;;2.85;100.00
64253;BME280;50592;52.958;-7.470;2024-03-02T23:06:33;98594.41;;;2.84;100.00
64253;BME280;50592;52.958;-7.470;2024-03-02T23:12:23;98590.25;;;2.92;100.00
64253;BME280;50592;52.958;-7.470;2024-03-02T23:21:20;98586.16;;;2.89;100.00
64253;BME280;50592;52.958;-7.470;2024-03-02T23:23:49;98597.28;;;2.91;100.00
64253;BME280;50592;52.958;-7.470;2024-03-02T23:26:21;98594.53;;;2.93;100.00
64253;BME280;50592;52.958;-7.470;2024-03-02T23:28:54;98594.41;;;2.94;100.00
64253;BME280;50592;52.958;-7.470;2024-03-02T23:31:35;98596.31;;;2.92;100.00
64253;BME280;50592;52.958;-7.470;2024-03-02T23:34:08;98598.66;;;2.95;100.00
64253;BME280;50592;52.958;-7.470;2024-03-02T23:37:02;98596.31;;;2.92;100.00
64253;BME280;50592;52.958;-7.470;2024-03-02T23:39:53;98608.41;;;2.93;100.00
64253;BME280;50592;52.958;-7.470;2024-03-02T23:43:05;98603.88;;;2.95;100.00
64253;BME280;50592;52.958;-7.470;2024-03-02T23:45:40;98593.03;;;2.90;100.00
64253;BME280;50592;52.958;-7.470;2024-03-02T23:48:14;98601.13;;;2.97;100.00
64253;BME280;50592;52.958;-7.470;2024-03-02T23:50:52;98596.19;;;2.94;100.00
64253;BME280;50592;52.958;-7.470;2024-03-02T23:53:47;98600.13;;;2.98;100.00
64253;BME280;50592;52.958;-7.470;2024-03-02T23:56:16;98591.78;;;2.94;100.00
64253;BME280;50592;52.958;-7.470;2024-03-02T23:58:58;98591.66;;;2.96;100.00
